Ellenburg Center, New York
Current Conditions -  °F | °C
As of 12:53 AM on Wednesday 22 Oct 2014 (Local Time) from KPBG Reporting Station
Overcast Overcast  
Wind Chill: 38°   Ceiling: 900
Heat Index: 45°   Visibility: 10mi
Dew Point: 43°   Wind: 15mph
Humidity: 93%   Direction: 350°N
Pressure: 30.12"   Gusts: NA
Location:  44.86°N, 73.9°W
Report Text: KPBG 220453Z AUTO 35013KT 10SM OVC009 07/06 A3012 RMK AO2 SLP201 T00720061 400940056
Loading
Personal Weather Stations






























Interactive Weather Map New forecast layout! Learn more

10-Day Weather Forecast

Advertisements
Track Severe Weather on mobile